Time;durP1;ratioP1;P1;durP2;ratioP2;P2;SDS_P1;SDS_P2;PMS_P1;PMS_P2;Temp;Humidity;BMP_temperature;BMP_pressure;BME280_temperature;BME280_humidity;BME280_pressure;Samples;Min_cycle;Max_cycle;Signal;HPM_P1;HPM_P2
2021/05/30 00:01:42;;;;;;;5.22;2.78;;;;;;;18.92;100.00;100972.59;4918276;29;20390;-76
2021/05/30 00:04:28;;;;;;;2.75;2.47;;;;;;;18.74;100.00;100973.50;4918818;29;20028;-75
2021/05/30 00:07:14;;;;;;;5.03;2.60;;;;;;;19.29;100.00;100969.94;4918643;29;20143;-76
2021/05/30 00:10:00;;;;;;;4.20;2.83;;;;;;;19.39;100.00;100970.34;4918592;29;20412;-76
2021/05/30 00:12:46;;;;;;;5.55;3.08;;;;;;;19.45;100.00;100973.56;4918238;29;20123;-76
2021/05/30 00:15:32;;;;;;;4.57;2.53;;;;;;;18.91;100.00;100973.56;4918119;29;20033;-76
2021/05/30 00:18:17;;;;;;;3.42;2.75;;;;;;;18.79;100.00;100975.00;4918053;29;20029;-76
2021/05/30 00:21:04;;;;;;;4.22;2.92;;;;;;;18.38;100.00;100965.44;4917946;29;20028;-76
2021/05/30 00:23:49;;;;;;;5.22;2.80;;;;;;;18.60;100.00;100967.94;4904808;29;20146;-76
2021/05/30 00:26:35;;;;;;;3.78;3.03;;;;;;;18.80;100.00;100966.09;4920197;29;20075;-76
2021/05/30 00:29:21;;;;;;;6.03;2.70;;;;;;;18.89;100.00;100968.31;4921590;29;20032;-76
2021/05/30 00:32:07;;;;;;;4.93;2.78;;;;;;;19.09;100.00;100962.06;4920996;29;20032;-76
2021/05/30 00:34:54;;;;;;;3.80;2.90;;;;;;;18.70;100.00;100963.94;4909087;29;20036;-76
2021/05/30 00:37:40;;;;;;;5.28;3.00;;;;;;;19.05;100.00;100960.50;4921769;29;20028;-76
2021/05/30 00:40:25;;;;;;;4.93;3.00;;;;;;;19.08;100.00;100962.97;4921514;29;20179;-76
2021/05/30 00:43:11;;;;;;;4.32;2.97;;;;;;;19.02;100.00;100960.63;4921393;29;20379;-76
2021/05/30 00:45:57;;;;;;;3.22;2.92;;;;;;;19.03;100.00;100959.69;4920377;29;20032;-76
2021/05/30 00:48:43;;;;;;;3.20;2.90;;;;;;;18.99;100.00;100958.13;4920141;29;20154;-76
2021/05/30 00:51:29;;;;;;;4.35;3.30;;;;;;;18.97;100.00;100952.88;4907085;29;20032;-76
2021/05/30 00:54:16;;;;;;;3.28;2.88;;;;;;;18.84;100.00;100958.84;4920952;29;20127;-77
2021/05/30 00:57:01;;;;;;;4.45;3.15;;;;;;;19.19;100.00;100952.69;4920913;29;20461;-76
2021/05/30 00:59:47;;;;;;;4.93;3.33;;;;;;;19.06;100.00;100951.59;4920095;29;20095;-76
2021/05/30 01:02:33;;;;;;;6.45;3.08;;;;;;;19.24;100.00;100955.19;4920872;29;20024;-76
2021/05/30 01:05:19;;;;;;;3.58;3.20;;;;;;;19.02;100.00;100948.19;4920934;29;20028;-76
2021/05/30 01:08:05;;;;;;;4.15;2.92;;;;;;;18.98;100.00;100951.09;4907141;29;20365;-76
2021/05/30 01:10:52;;;;;;;3.50;3.20;;;;;;;18.89;100.00;100952.38;4920876;29;20461;-76
2021/05/30 01:13:38;;;;;;;4.47;3.20;;;;;;;18.97;100.00;100952.03;4919957;29;20064;-76
2021/05/30 01:16:25;;;;;;;5.13;3.10;;;;;;;19.36;100.00;100957.22;4920153;29;20027;-77
2021/05/30 01:19:12;;;;;;;4.75;3.20;;;;;;;19.15;100.00;100953.78;4920891;29;20442;-77
2021/05/30 01:21:59;;;;;;;4.95;3.40;;;;;;;18.93;100.00;100953.13;4920612;29;20480;-76
2021/05/30 01:24:44;;;;;;;3.78;3.17;;;;;;;19.11;100.00;100946.91;4920525;29;20036;-77
2021/05/30 01:27:31;;;;;;;4.43;3.10;;;;;;;18.56;100.00;100943.34;4920416;29;20339;-76
2021/05/30 01:30:19;;;;;;;4.55;3.40;;;;;;;18.81;100.00;100946.56;4920530;29;20058;-76
2021/05/30 01:33:05;;;;;;;3.40;3.10;;;;;;;18.91;100.00;100937.25;4920287;29;20052;-77
2021/05/30 01:35:51;;;;;;;4.13;3.20;;;;;;;19.01;100.00;100932.38;4920505;29;20060;-77
2021/05/30 01:38:37;;;;;;;5.15;3.25;;;;;;;18.87;100.00;100945.44;4919335;29;20153;-77
2021/05/30 01:41:23;;;;;;;3.78;3.30;;;;;;;19.16;100.00;100944.88;4920051;29;20042;-76
2021/05/30 01:44:09;;;;;;;4.90;3.30;;;;;;;18.42;100.00;100936.97;4919488;29;20032;-76
2021/05/30 01:46:54;;;;;;;6.95;3.03;;;;;;;18.87;100.00;100938.34;4906783;29;20165;-76
2021/05/30 01:49:41;;;;;;;3.72;3.33;;;;;;;18.70;100.00;100937.41;4918865;29;20366;-77
2021/05/30 01:52:26;;;;;;;3.33;3.00;;;;;;;18.69;100.00;100931.22;4906229;29;20028;-77
2021/05/30 01:55:22;;;;;;;3.53;3.22;;;;;;;18.54;100.00;100941.72;4918845;29;20106;-76
2021/05/30 01:58:08;;;;;;;4.22;3.50;;;;;;;18.03;100.00;100933.41;4919784;29;20028;-75
2021/05/30 02:00:55;;;;;;;5.28;3.20;;;;;;;18.06;100.00;100941.25;4906555;29;20402;-77
2021/05/30 02:03:43;;;;;;;5.05;3.30;;;;;;;18.24;100.00;100937.75;4919692;29;20031;-77
2021/05/30 02:06:30;;;;;;;3.67;3.38;;;;;;;18.14;100.00;100947.06;4919513;29;20035;-76
2021/05/30 02:09:17;;;;;;;4.65;3.60;;;;;;;18.20;100.00;100941.47;4905606;29;20036;-77
2021/05/30 02:12:04;;;;;;;7.43;3.33;;;;;;;18.23;100.00;100938.69;4906166;29;20446;-77
2021/05/30 02:14:50;;;;;;;4.35;3.20;;;;;;;18.26;100.00;100936.78;4920140;29;20484;-76
2021/05/30 02:17:36;;;;;;;3.60;3.30;;;;;;;18.41;100.00;100929.94;4919697;29;20043;-76
2021/05/30 02:20:48;;;;;;;6.07;3.28;;;;;;;18.57;100.00;100933.63;4919450;29;20032;-76
2021/05/30 02:23:34;;;;;;;5.95;3.50;;;;;;;18.05;100.00;100939.53;4906587;29;20036;-76
2021/05/30 02:26:20;;;;;;;4.05;3.25;;;;;;;18.41;100.00;100937.91;4906307;29;20123;-76
2021/05/30 02:29:06;;;;;;;4.15;3.10;;;;;;;18.29;100.00;100936.63;4905888;29;20023;-76
2021/05/30 02:31:52;;;;;;;3.50;3.20;;;;;;;18.33;100.00;100938.22;4918640;29;20036;-76
2021/05/30 02:34:41;;;;;;;5.28;3.30;;;;;;;18.14;100.00;100937.34;4914336;29;20028;-76
2021/05/30 02:37:27;;;;;;;6.25;3.33;;;;;;;17.95;100.00;100939.06;4936470;29;20051;-77
2021/05/30 02:40:13;;;;;;;4.05;3.40;;;;;;;17.85;100.00;100943.03;4937795;29;20020;-76
2021/05/30 02:42:59;;;;;;;5.22;3.30;;;;;;;18.00;100.00;100945.03;4933000;29;20024;-78
2021/05/30 02:45:44;;;;;;;7.55;3.78;;;;;;;18.02;100.00;100944.97;4933396;29;20060;-76
2021/05/30 02:48:30;;;;;;;3.95;3.55;;;;;;;18.21;100.00;100944.06;4924639;29;20028;-77
2021/05/30 02:51:16;;;;;;;3.72;3.05;;;;;;;18.16;100.00;100947.84;4927205;29;20028;-76
2021/05/30 02:54:02;;;;;;;5.43;3.40;;;;;;;18.46;100.00;100942.06;4923706;29;20103;-76
2021/05/30 02:56:48;;;;;;;4.72;3.20;;;;;;;18.29;100.00;100949.88;4920155;29;20106;-77
2021/05/30 02:59:34;;;;;;;5.13;3.03;;;;;;;18.05;100.00;100939.53;4918530;29;20180;-76
2021/05/30 03:02:19;;;;;;;5.28;3.28;;;;;;;18.37;100.00;100938.97;4919878;29;20103;-76
2021/05/30 03:05:06;;;;;;;4.45;3.10;;;;;;;17.95;100.00;100948.81;4906332;29;20426;-75
2021/05/30 03:07:52;;;;;;;3.50;3.20;;;;;;;18.32;100.00;100951.53;4918265;29;20115;-76
2021/05/30 03:10:38;;;;;;;3.92;2.95;;;;;;;18.02;100.00;100947.63;4904843;29;20087;-76
2021/05/30 03:13:23;;;;;;;3.17;2.78;;;;;;;18.10;100.00;100948.13;4918770;29;20044;-75
2021/05/30 03:16:09;;;;;;;4.05;2.97;;;;;;;17.85;100.00;100944.84;4904913;29;20032;-76
2021/05/30 03:18:55;;;;;;;3.40;3.03;;;;;;;17.72;100.00;100955.09;4918494;29;20024;-76
2021/05/30 03:21:41;;;;;;;3.33;3.03;;;;;;;17.89;100.00;100952.59;4918358;29;20489;-76
2021/05/30 03:24:27;;;;;;;4.20;3.15;;;;;;;18.32;100.00;100951.53;4918555;29;20527;-76
2021/05/30 03:27:12;;;;;;;5.30;2.90;;;;;;;18.33;100.00;100954.13;4918160;29;20032;-76
2021/05/30 03:29:58;;;;;;;5.10;3.75;;;;;;;18.23;100.00;100950.19;4917677;29;20043;-76
2021/05/30 03:32:44;;;;;;;5.70;3.60;;;;;;;17.95;100.00;100952.34;4904216;29;20036;-76
2021/05/30 03:35:30;;;;;;;4.47;3.42;;;;;;;18.20;100.00;100949.44;4918580;29;20070;-75
2021/05/30 03:38:17;;;;;;;5.22;3.25;;;;;;;18.05;100.00;100950.13;4904543;29;20454;-75
2021/05/30 03:41:06;;;;;;;4.95;3.53;;;;;;;18.77;100.00;100949.47;4918832;29;20036;-76
2021/05/30 03:43:51;;;;;;;3.58;3.10;;;;;;;18.46;100.00;100951.81;4917965;29;20043;-76
2021/05/30 03:46:37;;;;;;;4.93;2.97;;;;;;;18.55;100.00;100948.72;4918296;29;20377;-75
2021/05/30 03:49:23;;;;;;;8.23;3.30;;;;;;;17.85;100.00;100958.94;4918498;29;20051;-75
2021/05/30 03:52:09;;;;;;;3.63;3.20;;;;;;;18.48;100.00;100950.81;4904588;29;20028;-76
2021/05/30 03:54:55;;;;;;;7.05;2.90;;;;;;;18.66;100.00;100957.91;4918281;29;20036;-76
2021/05/30 03:57:41;;;;;;;3.47;3.03;;;;;;;18.28;100.00;100958.78;4917171;29;20484;-76
2021/05/30 04:00:26;;;;;;;4.28;3.13;;;;;;;18.00;100.00;100950.34;4918064;29;20024;-76
2021/05/30 04:03:13;;;;;;;5.15;3.22;;;;;;;18.24;100.00;100951.00;4921709;29;20024;-76
2021/05/30 04:05:58;;;;;;;5.45;3.33;;;;;;;17.87;100.00;100949.16;4922563;29;20027;-76
2021/05/30 04:08:47;;;;;;;4.70;3.08;;;;;;;18.45;100.00;100948.28;4921839;29;20043;-76
2021/05/30 04:11:32;;;;;;;6.72;2.92;;;;;;;18.40;100.00;100962.69;4907986;29;20043;-76
2021/05/30 04:14:18;;;;;;;6.43;2.90;;;;;;;18.32;100.00;100962.16;4921388;29;20087;-76
2021/05/30 04:17:04;;;;;;;3.90;2.75;;;;;;;18.74;100.00;100958.41;4920807;29;20038;-76
2021/05/30 04:19:50;;;;;;;3.10;2.80;;;;;;;18.79;100.00;100956.41;4907677;29;20046;-76
2021/05/30 04:22:36;;;;;;;3.20;2.90;;;;;;;19.18;100.00;100958.97;4922293;29;20467;-77
2021/05/30 04:25:22;;;;;;;4.00;2.55;;;;;;;19.19;100.00;100961.53;4921747;29;20526;-76
2021/05/30 04:28:07;;;;;;;3.22;2.63;;;;;;;18.88;100.00;100963.06;4922052;29;20476;-76
2021/05/30 04:30:53;;;;;;;6.32;2.75;;;;;;;18.79;100.00;100963.50;4907795;29;20036;-76
2021/05/30 04:33:39;;;;;;;3.83;2.53;;;;;;;18.72;100.00;100951.44;4921248;29;20047;-77
2021/05/30 04:36:25;;;;;;;3.95;2.80;;;;;;;18.80;100.00;100954.59;4921161;29;20040;-77
2021/05/30 04:39:10;;;;;;;2.95;2.70;;;;;;;18.67;100.00;100951.69;4907373;29;20031;-77
2021/05/30 04:41:57;;;;;;;2.70;2.47;;;;;;;18.73;100.00;100948.72;4920754;29;20032;-77
2021/05/30 04:44:44;;;;;;;5.20;2.80;;;;;;;18.91;100.00;100955.84;4920666;29;20047;-77
2021/05/30 04:47:30;;;;;;;6.32;2.80;;;;;;;18.71;100.00;100960.34;4920380;29;20038;-76
2021/05/30 04:50:16;;;;;;;6.70;2.50;;;;;;;18.88;100.00;100960.41;4920621;29;20105;-77
2021/05/30 04:53:02;;;;;;;4.22;2.70;;;;;;;18.54;100.00;100955.84;4921202;29;20030;-77
2021/05/30 04:55:48;;;;;;;4.47;2.78;;;;;;;18.96;100.00;100953.81;4907449;29;20024;-77
2021/05/30 04:58:34;;;;;;;4.13;2.90;;;;;;;18.85;100.00;100957.94;4907221;29;20465;-77
2021/05/30 05:01:20;;;;;;;4.90;2.80;;;;;;;18.99;100.00;100948.38;4920352;29;20095;-77
2021/05/30 05:04:07;;;;;;;4.95;2.92;;;;;;;19.05;100.00;100949.88;4919982;29;20020;-76
2021/05/30 05:06:52;;;;;;;8.07;2.80;;;;;;;19.28;100.00;100959.41;4920261;29;20448;-77
2021/05/30 05:09:38;;;;;;;2.72;2.53;;;;;;;19.14;100.00;100960.03;4919579;29;20032;-76
2021/05/30 05:12:24;;;;;;;3.20;2.70;;;;;;;19.33;100.00;100957.38;4918549;29;20131;-77
2021/05/30 05:15:11;;;;;;;4.10;2.80;;;;;;;19.68;100.00;100953.81;4906759;29;20028;-77
2021/05/30 05:17:56;;;;;;;4.65;3.10;;;;;;;19.46;100.00;100955.81;4920137;29;20450;-77
2021/05/30 05:20:43;;;;;;;3.00;2.63;;;;;;;19.36;100.00;100958.06;4920069;29;20032;-77
2021/05/30 05:23:30;;;;;;;7.93;2.90;;;;;;;19.01;100.00;100953.59;4920766;29;20028;-77
2021/05/30 05:26:16;;;;;;;3.13;2.40;;;;;;;19.09;100.00;100959.41;4906684;29;20095;-77
2021/05/30 05:29:02;;;;;;;3.85;2.53;;;;;;;19.41;100.00;100958.69;4907895;29;20175;-76
2021/05/30 05:31:47;;;;;;;3.08;2.30;;;;;;;19.51;100.00;100959.97;4920559;29;20060;-76
2021/05/30 05:34:33;;;;;;;7.32;2.78;;;;;;;19.64;100.00;100961.06;4920914;29;20127;-76
2021/05/30 05:37:19;;;;;;;3.80;2.70;;;;;;;19.75;100.00;100960.53;4906713;29;20062;-76
2021/05/30 05:40:05;;;;;;;4.22;2.60;;;;;;;19.89;100.00;100963.34;4920509;29;20103;-77
2021/05/30 05:42:52;;;;;;;3.33;2.80;;;;;;;19.91;100.00;100978.28;4919831;29;20469;-76
2021/05/30 05:45:38;;;;;;;3.97;2.90;;;;;;;19.76;100.00;100971.09;4906017;29;20107;-77
2021/05/30 05:48:24;;;;;;;3.08;2.42;;;;;;;19.36;100.00;100965.19;4920242;29;20468;-76
2021/05/30 05:51:10;;;;;;;3.15;2.75;;;;;;;19.76;100.00;100968.41;4919767;29;20119;-76
2021/05/30 05:53:55;;;;;;;3.05;2.53;;;;;;;19.88;100.00;100966.91;4920024;29;20047;-76
2021/05/30 05:56:41;;;;;;;2.65;2.40;;;;;;;19.72;100.00;100966.84;4919019;29;20035;-76
2021/05/30 05:59:27;;;;;;;4.57;2.75;;;;;;;19.58;100.00;100971.16;4919866;29;20043;-76
2021/05/30 06:02:13;;;;;;;5.22;2.63;;;;;;;19.06;100.00;100963.03;4906993;29;20032;-76
2021/05/30 06:04:59;;;;;;;4.15;2.90;;;;;;;19.32;100.00;100968.94;4906078;29;20100;-77
2021/05/30 06:07:46;;;;;;;3.60;2.83;;;;;;;19.61;100.00;100974.50;4920751;29;20054;-75
2021/05/30 06:10:33;;;;;;;4.60;2.80;;;;;;;18.99;100.00;100966.97;4918981;29;20422;-76
2021/05/30 06:13:19;;;;;;;4.53;3.08;;;;;;;19.84;100.00;100970.72;4919461;29;20367;-77
2021/05/30 06:16:06;;;;;;;4.03;2.72;;;;;;;19.77;100.00;100974.63;4918758;29;20091;-77
2021/05/30 06:18:51;;;;;;;6.45;2.67;;;;;;;19.95;100.00;100977.19;4918655;29;20028;-77
2021/05/30 06:21:38;;;;;;;6.18;2.70;;;;;;;19.14;100.00;100971.50;4906405;29;20038;-77
2021/05/30 06:24:25;;;;;;;3.42;2.70;;;;;;;19.45;100.00;100972.72;4918825;29;20032;-77
2021/05/30 06:27:11;;;;;;;3.25;2.78;;;;;;;20.57;100.00;100973.91;4892838;29;20028;-77
2021/05/30 06:29:56;;;;;;;4.35;2.60;;;;;;;20.42;100.00;100972.06;4919489;29;20033;-76
2021/05/30 06:32:42;;;;;;;4.57;2.88;;;;;;;20.23;100.00;100979.28;4918602;29;20028;-76
2021/05/30 06:35:30;;;;;;;5.15;3.00;;;;;;;20.45;100.00;100980.72;4920020;29;20047;-76
2021/05/30 06:38:16;;;;;;;3.88;2.97;;;;;;;20.44;100.00;100976.34;4906055;29;20182;-76
2021/05/30 06:41:02;;;;;;;6.20;3.08;;;;;;;20.19;100.00;100981.25;4919510;29;20090;-76
2021/05/30 06:43:51;;;;;;;5.40;2.70;;;;;;;20.43;100.00;100989.72;4904938;29;20032;-76
2021/05/30 06:46:37;;;;;;;5.97;3.20;;;;;;;20.44;100.00;100997.63;4918418;29;20028;-77
2021/05/30 06:49:22;;;;;;;3.03;2.72;;;;;;;20.57;100.00;100993.38;4919741;29;20066;-77
2021/05/30 06:52:08;;;;;;;7.50;2.97;;;;;;;20.39;100.00;100998.81;4906018;29;20031;-77
2021/05/30 06:54:54;;;;;;;3.00;2.70;;;;;;;20.28;100.00;101002.06;4918108;29;20361;-75
2021/05/30 06:57:40;;;;;;;4.32;2.80;;;;;;;20.81;100.00;101005.34;4918745;29;20109;-77
2021/05/30 07:00:26;;;;;;;5.88;3.15;;;;;;;20.60;100.00;101013.63;4918479;29;20028;-76
2021/05/30 07:03:11;;;;;;;3.72;2.65;;;;;;;20.30;100.00;101009.97;4918437;29;20032;-77
2021/05/30 07:05:59;;;;;;;4.13;2.72;;;;;;;20.27;100.00;101016.31;4918966;29;20032;-77
2021/05/30 07:08:45;;;;;;;5.93;3.00;;;;;;;20.90;100.00;101018.16;4918794;29;20039;-76
2021/05/30 07:11:30;;;;;;;4.32;2.60;;;;;;;20.85;100.00;101020.22;4919160;29;20044;-77
2021/05/30 07:14:16;;;;;;;4.38;2.63;;;;;;;20.75;100.00;101024.34;4918315;29;20052;-79
2021/05/30 07:17:02;;;;;;;4.65;2.92;;;;;;;21.14;100.00;101022.16;4919502;29;20028;-77
2021/05/30 07:19:50;;;;;;;4.15;2.78;;;;;;;20.83;100.00;101026.59;4906226;29;20374;-77
2021/05/30 07:22:36;;;;;;;3.20;2.60;;;;;;;20.73;100.00;101026.22;4919241;29;20504;-77
2021/05/30 07:25:22;;;;;;;3.40;2.85;;;;;;;20.71;100.00;101029.91;4919067;29;20114;-78
2021/05/30 07:28:08;;;;;;;3.10;2.53;;;;;;;20.99;100.00;101025.69;4918842;29;20034;-76
2021/05/30 07:30:54;;;;;;;4.53;3.40;;;;;;;21.53;100.00;101025.25;4919080;29;20064;-76
2021/05/30 07:33:40;;;;;;;4.47;2.75;;;;;;;21.59;100.00;101019.56;4918520;29;20048;-77
2021/05/30 07:36:28;;;;;;;6.35;2.90;;;;;;;20.88;100.00;101029.84;4919473;29;20115;-77
2021/05/30 07:39:14;;;;;;;3.38;3.03;;;;;;;21.04;100.00;101022.75;4918960;29;20043;-77
2021/05/30 07:42:00;;;;;;;4.22;2.70;;;;;;;21.74;100.00;101028.53;4919473;29;20040;-78
2021/05/30 07:44:45;;;;;;;4.03;2.80;;;;;;;21.18;100.00;101026.38;4929652;29;20028;-77
2021/05/30 07:47:32;;;;;;;3.40;3.10;;;;;;;21.67;100.00;101024.44;4936086;29;20050;-77
2021/05/30 07:50:18;;;;;;;3.83;2.88;;;;;;;21.70;100.00;101026.94;4915851;29;20032;-77
2021/05/30 07:53:04;;;;;;;4.28;2.75;;;;;;;21.83;100.00;101033.31;4918643;29;20032;-76
2021/05/30 07:55:50;;;;;;;4.43;2.63;;;;;;;21.81;100.00;101030.72;4918461;29;20023;-77
2021/05/30 07:58:36;;;;;;;3.10;2.60;;;;;;;21.26;100.00;101048.13;4907913;29;20107;-76
2021/05/30 08:01:22;;;;;;;3.40;3.10;;;;;;;21.31;100.00;101035.44;4908988;29;20046;-76
2021/05/30 08:04:07;;;;;;;3.95;3.38;;;;;;;21.40;100.00;101042.91;4923084;29;20028;-77
2021/05/30 08:06:53;;;;;;;4.35;2.90;;;;;;;21.53;100.00;101037.69;4925032;29;20074;-77
2021/05/30 08:09:39;;;;;;;5.75;2.85;;;;;;;22.10;100.00;101045.88;4911946;29;20036;-76
2021/05/30 08:12:26;;;;;;;3.97;2.83;;;;;;;22.29;100.00;101049.16;4924651;29;20111;-76
2021/05/30 08:15:12;;;;;;;4.13;3.10;;;;;;;21.99;100.00;101056.31;4907752;29;20068;-77
2021/05/30 08:17:59;;;;;;;5.00;3.05;;;;;;;21.98;100.00;101053.75;4919795;29;20426;-77
2021/05/30 08:20:45;;;;;;;4.85;2.92;;;;;;;22.20;100.00;101063.06;4905771;29;20024;-76
2021/05/30 08:23:30;;;;;;;4.40;3.17;;;;;;;22.36;100.00;101061.19;4917631;29;20043;-77
2021/05/30 08:26:16;;;;;;;7.50;3.20;;;;;;;22.30;100.00;101066.88;4905015;29;20024;-76
2021/05/30 08:29:02;;;;;;;3.50;2.90;;;;;;;22.27;100.00;101061.72;4918415;29;20135;-76
2021/05/30 08:31:49;;;;;;;6.00;3.25;;;;;;;22.51;100.00;101070.13;4917834;29;20028;-76
2021/05/30 08:34:37;;;;;;;4.53;3.33;;;;;;;22.08;100.00;101069.13;4917674;29;20338;-76
2021/05/30 08:37:23;;;;;;;3.13;2.83;;;;;;;21.80;100.00;101071.69;4918190;29;20165;-76
2021/05/30 08:40:10;;;;;;;6.15;3.42;;;;;;;22.33;100.00;101068.50;4917871;29;20024;-77
2021/05/30 08:42:56;;;;;;;5.00;3.33;;;;;;;22.55;100.00;101066.31;4917675;29;20060;-77
2021/05/30 08:45:43;;;;;;;5.38;3.20;;;;;;;22.29;100.00;101072.31;4917230;29;20047;-77
2021/05/30 08:48:29;;;;;;;4.85;3.40;;;;;;;22.69;100.00;101069.84;4921649;29;20036;-77
2021/05/30 08:51:16;;;;;;;3.83;3.40;;;;;;;22.94;100.00;101080.72;4920915;29;20381;-77
2021/05/30 08:54:16;;;;;;;4.78;3.22;;;;;;;22.60;100.00;101064.22;4921222;29;20450;-77
2021/05/30 08:57:02;;;;;;;7.78;3.45;;;;;;;23.46;100.00;101072.94;4921120;29;20469;-76
2021/05/30 08:59:54;;;;;;;7.22;3.55;;;;;;;23.18;100.00;101068.50;4921390;29;20028;-77
2021/05/30 09:02:41;;;;;;;6.15;3.30;;;;;;;23.73;100.00;101068.47;4907034;29;20039;-76
2021/05/30 09:05:35;;;;;;;4.78;3.38;;;;;;;23.67;100.00;101070.69;4908264;29;20068;-75
2021/05/30 09:08:31;;;;;;;4.70;3.55;;;;;;;23.40;100.00;101076.88;4906881;29;20046;-76
2021/05/30 09:11:41;;;;;;;6.20;3.35;;;;;;;23.64;99.49;101079.78;4921233;29;20469;-76
2021/05/30 09:14:30;;;;;;;8.25;3.20;;;;;;;23.81;100.00;101078.66;4919143;29;20548;-76
2021/05/30 09:17:16;;;;;;;5.32;3.63;;;;;;;24.12;97.69;101078.38;4920877;29;20035;-76
2021/05/30 09:20:05;;;;;;;6.88;3.50;;;;;;;23.01;100.00;101075.84;4920651;29;20039;-77
2021/05/30 09:22:51;;;;;;;4.18;3.10;;;;;;;23.63;100.00;101069.19;4907455;29;20468;-76
2021/05/30 09:25:36;;;;;;;4.70;3.47;;;;;;;23.55;100.00;101072.38;4919744;29;20420;-76
2021/05/30 09:28:22;;;;;;;3.75;3.03;;;;;;;23.87;100.00;101073.75;4906531;29;20039;-76
2021/05/30 09:31:08;;;;;;;4.82;3.20;;;;;;;23.96;100.00;101078.56;4919759;29;20099;-77
2021/05/30 09:33:54;;;;;;;4.70;3.33;;;;;;;23.63;100.00;101064.69;4906431;29;20024;-77
2021/05/30 09:36:51;;;;;;;5.43;3.60;;;;;;;23.08;100.00;101063.81;4920902;29;20099;-77
2021/05/30 09:39:48;;;;;;;6.32;3.33;;;;;;;22.99;100.00;101065.25;4919993;29;20016;-77
2021/05/30 09:42:37;;;;;;;4.18;3.30;;;;;;;23.56;100.00;101051.81;4920182;29;20043;-77
2021/05/30 09:45:23;;;;;;;5.10;3.70;;;;;;;23.27;100.00;101048.38;4906220;29;20024;-77
2021/05/30 09:48:21;;;;;;;6.93;3.38;;;;;;;23.49;100.00;101046.00;4920056;29;20028;-76
2021/05/30 09:51:30;;;;;;;5.38;3.55;;;;;;;23.63;100.00;101040.63;4919953;29;20044;-76
2021/05/30 09:54:18;;;;;;;5.32;3.47;;;;;;;23.69;100.00;101044.69;4906269;29;20035;-77
2021/05/30 09:57:08;;;;;;;7.60;3.50;;;;;;;23.36;100.00;101048.59;4919881;29;20472;-76
2021/05/30 09:59:54;;;;;;;5.47;3.47;;;;;;;23.17;100.00;101042.72;4905954;29;20103;-77
2021/05/30 10:02:40;;;;;;;5.65;3.33;;;;;;;23.73;100.00;101041.72;4919604;29;20032;-77
2021/05/30 10:05:26;;;;;;;5.45;3.50;;;;;;;23.30;100.00;101040.13;4906579;29;20055;-77
2021/05/30 10:08:13;;;;;;;4.78;3.17;;;;;;;23.82;100.00;101035.75;4919663;29;20107;-76
2021/05/30 10:10:59;;;;;;;5.63;3.38;;;;;;;23.79;98.67;101033.25;4905888;29;20025;-76
2021/05/30 10:13:45;;;;;;;5.25;3.30;;;;;;;23.75;100.00;101030.91;4919328;29;20071;-77
2021/05/30 10:16:33;;;;;;;3.92;3.53;;;;;;;24.19;98.36;101026.97;4919624;29;20043;-77
2021/05/30 10:19:29;;;;;;;3.83;3.15;;;;;;;23.82;100.00;101030.38;4919573;29;20035;-77
2021/05/30 10:22:17;;;;;;;8.18;3.10;;;;;;;23.82;97.64;101034.91;4905500;29;20039;-77
2021/05/30 10:25:04;;;;;;;7.07;3.00;;;;;;;24.66;98.07;101039.75;4919236;29;20430;-76
2021/05/30 10:28:12;;;;;;;4.20;2.95;;;;;;;24.70;94.21;101039.44;4919221;29;20115;-77
2021/05/30 10:31:34;;;;;;;4.78;3.25;;;;;;;24.12;98.30;101040.88;4919032;29;20457;-76
2021/05/30 10:34:22;;;;;;;4.10;3.03;;;;;;;24.44;97.11;101044.88;4917034;29;20040;-77
2021/05/30 10:37:16;;;;;;;6.15;3.50;;;;;;;24.56;94.04;101049.38;4919361;29;20032;-77
2021/05/30 10:40:22;;;;;;;5.25;3.22;;;;;;;24.47;97.08;101036.66;4917983;29;20052;-77
2021/05/30 10:43:11;;;;;;;8.48;3.58;;;;;;;24.65;93.18;101046.09;4919293;29;20032;-77
2021/05/30 10:45:59;;;;;;;3.67;3.28;;;;;;;24.25;96.30;101047.09;4917858;29;20059;-76
2021/05/30 10:49:08;;;;;;;4.75;3.30;;;;;;;24.05;97.45;101051.16;4919633;29;20111;-76
2021/05/30 10:51:53;;;;;;;5.40;3.05;;;;;;;24.37;96.28;101055.16;4905003;29;20071;-77
2021/05/30 10:54:39;;;;;;;3.75;3.22;;;;;;;24.55;95.66;101051.19;4918255;29;20102;-76
2021/05/30 10:57:46;;;;;;;5.25;3.58;;;;;;;24.77;96.02;101048.78;4917555;29;20454;-76
2021/05/30 11:00:32;;;;;;;7.43;3.65;;;;;;;23.95;99.24;101038.50;4919435;29;20103;-76
2021/05/30 11:03:18;;;;;;;5.22;3.70;;;;;;;24.27;98.54;101037.16;4917918;29;20031;-76
2021/05/30 11:06:04;;;;;;;3.85;2.70;;;;;;;24.56;95.49;101041.34;4919257;29;20028;-77
2021/05/30 11:08:52;;;;;;;5.75;3.20;;;;;;;25.10;93.17;101034.75;4918571;29;20371;-76
2021/05/30 11:11:38;;;;;;;3.88;3.13;;;;;;;24.43;95.22;101035.97;4917736;29;20028;-76
2021/05/30 11:14:24;;;;;;;4.80;2.90;;;;;;;24.59;93.95;101033.09;4918868;29;20048;-76
2021/05/30 11:17:10;;;;;;;3.22;2.85;;;;;;;25.06;91.90;101030.59;4919189;29;20378;-76
2021/05/30 11:19:58;;;;;;;4.38;3.10;;;;;;;24.63;93.94;101037.31;4917548;29;20038;-76
2021/05/30 11:23:07;;;;;;;14.68;3.55;;;;;;;25.00;93.95;101031.06;4919543;29;20036;-78
2021/05/30 11:25:56;;;;;;;3.38;2.65;;;;;;;25.06;93.47;101030.59;4918830;29;20127;-77
2021/05/30 11:28:46;;;;;;;7.25;3.00;;;;;;;25.10;92.06;101029.41;4918594;29;20107;-77
2021/05/30 11:31:33;;;;;;;5.78;3.30;;;;;;;23.93;97.83;101032.38;4918458;29;20135;-76
2021/05/30 11:34:19;;;;;;;4.90;3.08;;;;;;;24.22;95.50;101032.13;4904227;29;20043;-76
2021/05/30 11:37:10;;;;;;;5.18;2.80;;;;;;;25.00;92.00;101031.88;4918744;29;20059;-77
2021/05/30 11:39:56;;;;;;;5.10;3.15;;;;;;;25.35;90.75;101030.22;4904467;29;20339;-77
2021/05/30 11:42:42;;;;;;;3.58;2.85;;;;;;;25.07;92.05;101032.34;4918574;29;20067;-77
2021/05/30 11:45:36;;;;;;;6.00;3.10;;;;;;;24.39;92.94;101022.94;4918223;29;20505;-76
2021/05/30 11:48:24;;;;;;;3.30;3.00;;;;;;;25.36;91.80;101031.09;4918677;29;20416;-77
2021/05/30 11:51:10;;;;;;;4.07;3.15;;;;;;;25.77;88.29;101026.19;4918002;29;20066;-77
2021/05/30 11:54:02;;;;;;;7.28;3.28;;;;;;;25.28;88.80;101022.75;4918569;29;20040;-77
2021/05/30 11:56:51;;;;;;;3.88;3.00;;;;;;;25.44;91.35;101015.28;4918236;29;20169;-77
2021/05/30 11:59:41;;;;;;;4.88;2.97;;;;;;;25.49;90.02;101018.47;4904850;29;20458;-77
2021/05/30 12:02:34;;;;;;;7.85;3.55;;;;;;;26.02;85.01;101016.19;4918018;29;20479;-76
2021/05/30 12:05:20;;;;;;;3.58;2.97;;;;;;;25.89;87.04;101022.56;4917975;29;20043;-77
2021/05/30 12:08:17;;;;;;;7.90;3.05;;;;;;;24.69;93.93;101026.16;4917948;29;20485;-77
2021/05/30 12:11:03;;;;;;;4.60;2.88;;;;;;;24.76;95.10;101030.13;4918555;29;20042;-77
2021/05/30 12:13:49;;;;;;;5.10;3.40;;;;;;;24.83;94.57;101024.19;4917779;29;20470;-77
2021/05/30 12:16:35;;;;;;;3.70;3.00;;;;;;;25.60;92.52;101013.19;4918054;29;20095;-77
2021/05/30 12:19:20;;;;;;;4.57;3.10;;;;;;;25.18;95.31;101018.97;4904743;29;20039;-76
2021/05/30 12:22:06;;;;;;;4.30;3.38;;;;;;;25.58;92.95;101015.09;4906706;29;20028;-77
2021/05/30 12:24:53;;;;;;;4.07;3.60;;;;;;;25.62;91.04;101011.22;4908444;29;20453;-77
2021/05/30 12:27:39;;;;;;;4.45;3.10;;;;;;;24.84;95.56;101020.56;4907595;29;20028;-76
2021/05/30 12:30:25;;;;;;;6.07;3.40;;;;;;;25.60;92.39;101013.19;4921772;29;20032;-77
2021/05/30 12:33:11;;;;;;;5.38;2.95;;;;;;;25.69;91.96;101004.44;4921337;29;20078;-77
2021/05/30 12:35:56;;;;;;;3.75;3.22;;;;;;;25.66;90.52;101010.00;4907678;29;20051;-77
2021/05/30 12:38:42;;;;;;;4.40;2.92;;;;;;;26.18;87.82;100999.75;4921312;29;20024;-77
2021/05/30 12:41:33;;;;;;;6.65;3.45;;;;;;;26.67;85.21;101006.56;4921375;29;20028;-77
2021/05/30 12:44:21;;;;;;;3.38;2.92;;;;;;;26.57;82.91;101000.16;4921122;29;20032;-76
2021/05/30 12:47:11;;;;;;;4.82;3.35;;;;;;;26.07;85.28;100994.31;4920952;29;20020;-77
2021/05/30 12:49:59;;;;;;;5.22;3.33;;;;;;;26.02;85.48;100991.16;4921499;29;20028;-77
2021/05/30 12:52:46;;;;;;;4.30;2.85;;;;;;;26.07;85.85;100995.19;4921238;29;20064;-77